Time;durP1;ratioP1;P1;durP2;ratioP2;P2;SDS_P1;SDS_P2;PMS_P1;PMS_P2;Temp;Humidity;BMP_temperature;BMP_pressure;BME280_temperature;BME280_humidity;BME280_pressure;Samples;Min_cycle;Max_cycle;Signal;HPM_P1;HPM_P2
2021/03/08 00:00:12;;;;;;;12.98;9.13;;;;;;;5.71;52.06;100925.25;5017808;28;20054;-76
2021/03/08 00:02:43;;;;;;;14.63;9.32;;;;;;;5.78;51.92;100928.59;5017196;28;20061;-76
2021/03/08 00:05:11;;;;;;;13.27;8.82;;;;;;;5.85;51.63;100926.41;5017004;28;20073;-76
2021/03/08 00:07:38;;;;;;;13.30;9.43;;;;;;;5.87;51.15;100923.38;5017640;28;20073;-76
2021/03/08 00:10:06;;;;;;;13.23;8.98;;;;;;;5.93;51.69;100921.47;5017387;28;20053;-76
2021/03/08 00:12:33;;;;;;;12.57;8.50;;;;;;;5.95;51.99;100925.66;5017590;28;20061;-76
2021/03/08 00:15:00;;;;;;;12.60;8.63;;;;;;;5.90;52.62;100931.16;5016811;28;20053;-76
2021/03/08 00:17:28;;;;;;;12.68;9.35;;;;;;;5.94;51.91;100929.47;5017287;28;20050;-77
2021/03/08 00:19:55;;;;;;;13.88;9.73;;;;;;;5.91;52.54;100921.72;5016588;28;20489;-77
2021/03/08 00:22:22;;;;;;;13.07;9.63;;;;;;;5.98;52.62;100922.31;5016870;28;20069;-76
2021/03/08 00:24:49;;;;;;;12.30;8.60;;;;;;;6.01;52.53;100921.78;5036400;28;20055;-77
2021/03/08 00:27:16;;;;;;;13.43;9.27;;;;;;;6.01;52.11;100926.50;5037152;28;20414;-76
2021/03/08 00:29:46;;;;;;;15.95;10.65;;;;;;;6.01;51.99;100926.50;5037002;28;20061;-76
2021/03/08 00:32:12;;;;;;;12.63;10.35;;;;;;;6.01;52.05;100921.78;5036231;28;20060;-76
2021/03/08 00:34:40;;;;;;;13.80;9.48;;;;;;;6.00;52.17;100924.81;5036813;28;20054;-76
2021/03/08 00:37:07;;;;;;;15.60;9.93;;;;;;;5.94;51.78;100928.66;5036619;28;20058;-77
2021/03/08 00:39:34;;;;;;;15.57;10.48;;;;;;;5.98;51.34;100927.84;5036449;28;20061;-77
2021/03/08 00:42:05;;;;;;;15.13;10.32;;;;;;;5.98;52.04;100921.50;5037497;28;20407;-77
2021/03/08 00:44:31;;;;;;;15.25;10.50;;;;;;;5.98;52.13;100929.78;5036746;28;20053;-76
2021/03/08 00:46:58;;;;;;;14.73;10.05;;;;;;;5.95;53.23;100928.41;5037289;28;20053;-77
2021/03/08 00:49:25;;;;;;;13.77;9.70;;;;;;;6.01;52.26;100920.97;5036313;28;20049;-76
2021/03/08 00:51:53;;;;;;;15.05;10.57;;;;;;;6.04;51.70;100918.47;5036361;28;20050;-76
2021/03/08 00:54:20;;;;;;;14.88;9.43;;;;;;;6.05;52.68;100916.56;5022830;28;20500;-76
2021/03/08 00:56:46;;;;;;;17.23;10.70;;;;;;;6.09;52.49;100912.16;5016496;28;20057;-76
2021/03/08 00:59:13;;;;;;;15.68;9.98;;;;;;;6.01;52.40;100910.72;5016217;28;20143;-76
2021/03/08 01:01:40;;;;;;;16.33;9.98;;;;;;;6.00;53.00;100908.22;5015412;28;20499;-76
2021/03/08 01:04:07;;;;;;;15.05;10.25;;;;;;;6.02;52.25;100906.84;5015974;28;20080;-76
2021/03/08 01:06:34;;;;;;;12.80;9.30;;;;;;;5.96;53.03;100907.94;5015453;28;20054;-76
2021/03/08 01:09:02;;;;;;;14.50;10.35;;;;;;;5.97;53.36;100904.09;5015967;28;20069;-76
2021/03/08 01:11:29;;;;;;;15.25;9.05;;;;;;;5.99;52.43;100907.41;5015485;28;20061;-76
2021/03/08 01:13:55;;;;;;;14.60;9.77;;;;;;;5.98;52.07;100900.19;5015741;28;20069;-76
2021/03/08 01:16:25;;;;;;;15.73;10.18;;;;;;;5.99;52.35;100907.41;5014637;28;20049;-76
2021/03/08 01:18:52;;;;;;;16.02;10.85;;;;;;;6.01;51.88;100898.84;5015656;28;20053;-76
2021/03/08 01:21:20;;;;;;;16.20;11.45;;;;;;;6.00;52.31;100895.22;5015768;28;20058;-76
2021/03/08 01:23:47;;;;;;;16.08;10.85;;;;;;;6.01;52.03;100894.13;5023624;28;20057;-76
2021/03/08 01:26:15;;;;;;;15.50;10.68;;;;;;;6.01;52.68;100891.38;5015860;28;20506;-76
2021/03/08 01:28:42;;;;;;;16.08;11.27;;;;;;;6.00;52.57;100886.13;5015540;28;20064;-76
2021/03/08 01:31:09;;;;;;;17.05;11.65;;;;;;;5.99;53.71;100887.22;5016073;28;20050;-76
2021/03/08 01:33:35;;;;;;;16.00;10.93;;;;;;;6.02;53.54;100878.38;5015187;28;20380;-76
2021/03/08 01:36:03;;;;;;;16.30;11.45;;;;;;;6.02;52.54;100879.19;5015587;28;20135;-76
2021/03/08 01:38:29;;;;;;;17.45;11.00;;;;;;;6.03;53.04;100872.56;5033525;28;20060;-77
2021/03/08 01:40:56;;;;;;;16.67;11.63;;;;;;;5.97;53.68;100872.84;5034869;28;20061;-76
2021/03/08 01:43:25;;;;;;;21.88;11.80;;;;;;;5.99;53.45;100881.69;5035612;28;20053;-76
2021/03/08 01:45:52;;;;;;;16.52;11.82;;;;;;;5.95;52.81;100877.81;5035698;28;20529;-76
2021/03/08 01:48:19;;;;;;;16.52;11.55;;;;;;;5.94;52.88;100885.22;5035157;28;20509;-76
2021/03/08 01:50:48;;;;;;;17.85;11.55;;;;;;;5.93;53.46;100880.81;5035446;28;20509;-76
2021/03/08 01:53:18;;;;;;;15.67;10.83;;;;;;;5.93;54.00;100880.81;5032196;28;20076;-76
2021/03/08 01:55:45;;;;;;;16.92;11.98;;;;;;;5.93;54.08;100880.81;5015218;28;20050;-76
2021/03/08 01:58:12;;;;;;;20.08;12.93;;;;;;;5.97;53.66;100881.16;5015736;28;20053;-76
2021/03/08 02:00:40;;;;;;;17.08;12.38;;;;;;;5.98;53.71;100878.09;5015585;28;20057;-76
2021/03/08 02:03:07;;;;;;;19.83;13.00;;;;;;;6.01;53.61;100865.66;5015301;28;20054;-76
2021/03/08 02:05:37;;;;;;;23.23;13.00;;;;;;;6.02;53.29;100870.91;5014791;28;20045;-76
2021/03/08 02:08:06;;;;;;;19.35;13.10;;;;;;;6.02;53.80;100867.31;5015387;28;20403;-76
2021/03/08 02:10:36;;;;;;;18.77;13.55;;;;;;;6.03;54.26;100864.28;5014792;28;20054;-76
2021/03/08 02:13:15;;;;;;;25.35;13.68;;;;;;;6.04;54.86;100863.16;5014975;28;20060;-76
2021/03/08 02:15:55;;;;;;;18.25;12.65;;;;;;;6.05;54.11;100848.25;5014573;28;20049;-76
2021/03/08 02:18:32;;;;;;;21.77;13.90;;;;;;;5.94;54.21;100862.28;5015066;28;20395;-76
2021/03/08 02:21:17;;;;;;;19.63;13.27;;;;;;;5.97;54.48;100854.31;5014450;28;20057;-76
2021/03/08 02:24:29;;;;;;;19.90;13.20;;;;;;;5.98;54.56;100858.72;5015516;28;20049;-76
2021/03/08 02:26:59;;;;;;;21.25;13.13;;;;;;;5.82;54.60;100857.03;5014770;28;20050;-77
2021/03/08 02:30:03;;;;;;;19.05;13.20;;;;;;;5.84;54.33;100854.81;5014638;28;20419;-76
2021/03/08 02:32:35;;;;;;;23.08;14.50;;;;;;;5.80;54.63;100856.47;5015616;28;20407;-77
2021/03/08 02:35:08;;;;;;;19.67;13.20;;;;;;;5.85;54.39;100853.72;5015685;28;20050;-76
2021/03/08 02:37:41;;;;;;;22.42;13.63;;;;;;;5.89;54.95;100849.28;5026095;28;20052;-77
2021/03/08 02:40:13;;;;;;;20.17;13.50;;;;;;;5.84;54.50;100841.00;5034248;28;20069;-77
2021/03/08 02:42:46;;;;;;;23.58;14.40;;;;;;;5.89;53.89;100841.00;5017473;28;20471;-76
2021/03/08 02:45:17;;;;;;;22.95;15.70;;;;;;;5.88;53.89;100834.66;5033402;28;20061;-77
2021/03/08 02:47:47;;;;;;;22.85;14.80;;;;;;;5.89;54.26;100835.47;5033963;28;20536;-76
2021/03/08 02:50:16;;;;;;;26.25;16.58;;;;;;;5.90;54.38;100843.50;5033906;28;20072;-77
2021/03/08 02:52:51;;;;;;;23.70;15.75;;;;;;;5.94;54.20;100843.75;5033826;28;20061;-76
2021/03/08 02:55:22;;;;;;;26.55;16.75;;;;;;;5.96;54.44;100832.47;5033939;28;20053;-76
2021/03/08 02:57:51;;;;;;;27.70;18.38;;;;;;;5.94;54.34;100835.47;5033977;28;20053;-77
2021/03/08 03:00:19;;;;;;;26.50;16.27;;;;;;;5.94;54.57;100843.75;5030229;28;20045;-77
2021/03/08 03:02:48;;;;;;;27.42;15.90;;;;;;;5.95;54.76;100837.16;5013854;28;20058;-76
2021/03/08 03:05:17;;;;;;;27.03;16.80;;;;;;;5.97;54.81;100828.59;5013995;28;20058;-77
2021/03/08 03:07:49;;;;;;;26.58;16.65;;;;;;;5.93;55.36;100842.13;5014255;28;20515;-77
2021/03/08 03:10:17;;;;;;;27.40;16.23;;;;;;;5.92;55.55;100843.19;5013864;28;20054;-77
2021/03/08 03:12:49;;;;;;;25.63;15.25;;;;;;;5.92;56.22;100839.63;5013986;28;20405;-77
2021/03/08 03:15:16;;;;;;;22.95;15.77;;;;;;;5.93;55.69;100844.88;5019022;28;20467;-76
2021/03/08 03:17:48;;;;;;;22.45;16.40;;;;;;;5.95;55.68;100842.69;5013772;28;20491;-76
2021/03/08 03:20:16;;;;;;;27.70;16.10;;;;;;;5.99;55.89;100843.81;5013363;28;20061;-76
2021/03/08 03:22:49;;;;;;;26.15;15.38;;;;;;;6.00;55.72;100837.16;5013722;28;20058;-76
2021/03/08 03:25:19;;;;;;;25.30;16.50;;;;;;;6.01;55.67;100838.84;5013713;28;20061;-76
2021/03/08 03:27:47;;;;;;;25.77;16.00;;;;;;;6.00;56.12;100844.63;5013438;28;20061;-76
2021/03/08 03:30:17;;;;;;;23.10;15.10;;;;;;;6.00;56.22;100841.88;5013022;28;20163;-75
2021/03/08 03:32:47;;;;;;;24.63;15.00;;;;;;;6.04;55.47;100849.34;5012850;28;20053;-76
2021/03/08 03:35:16;;;;;;;25.23;15.88;;;;;;;6.11;55.01;100851.84;5013485;28;20050;-76
2021/03/08 03:37:47;;;;;;;23.45;15.23;;;;;;;6.10;54.80;100848.22;5025063;28;20064;-76
2021/03/08 03:40:15;;;;;;;23.35;15.13;;;;;;;6.14;55.32;100847.69;5033005;28;20080;-76
2021/03/08 03:42:43;;;;;;;23.80;14.65;;;;;;;6.17;55.73;100849.91;5033078;28;20054;-76
2021/03/08 03:45:12;;;;;;;22.55;14.63;;;;;;;6.15;55.40;100849.34;5032539;28;20411;-76
2021/03/08 03:47:42;;;;;;;24.23;14.90;;;;;;;6.19;55.70;100847.69;5033162;28;20499;-76
2021/03/08 03:50:12;;;;;;;25.33;15.80;;;;;;;6.24;54.74;100854.06;5032670;28;20050;-76
2021/03/08 03:52:42;;;;;;;25.48;15.07;;;;;;;6.27;54.90;100853.50;5030357;28;20161;-76
2021/03/08 03:55:13;;;;;;;27.67;16.30;;;;;;;6.26;55.37;100851.84;5013473;28;20423;-76
2021/03/08 03:57:49;;;;;;;24.23;15.23;;;;;;;6.28;55.14;100854.34;5014025;28;20069;-77
2021/03/08 04:00:22;;;;;;;26.38;16.30;;;;;;;6.28;55.27;100846.88;5013468;28;20057;-77
2021/03/08 04:02:59;;;;;;;25.05;15.68;;;;;;;6.35;54.52;100849.34;5013147;28;20054;-77
2021/03/08 04:05:27;;;;;;;24.80;16.60;;;;;;;6.37;54.19;100852.69;5013317;28;20063;-77
2021/03/08 04:07:56;;;;;;;25.90;16.83;;;;;;;6.39;54.25;100846.88;5013604;28;20388;-77
2021/03/08 04:10:26;;;;;;;24.23;15.30;;;;;;;6.34;54.77;100853.25;5013434;28;20503;-77
2021/03/08 04:12:55;;;;;;;;;;;;;;;6.37;54.61;100857.38;5013364;28;20352;-77
2021/03/08 04:15:25;;;;;;;22.60;14.55;;;;;;;6.38;54.43;100854.31;5013429;28;19925;-77
2021/03/08 04:17:53;;;;;;;28.13;16.80;;;;;;;6.38;54.20;100854.31;5013015;28;20404;-77
2021/03/08 04:20:22;;;;;;;29.35;17.73;;;;;;;6.42;54.03;100857.38;5013436;28;20066;-77
2021/03/08 04:22:51;;;;;;;27.13;16.10;;;;;;;6.45;54.06;100856.84;5013562;28;20061;-77
2021/03/08 04:25:20;;;;;;;27.13;17.10;;;;;;;6.46;54.01;100861.25;5014748;28;20054;-77
2021/03/08 04:27:49;;;;;;;27.55;17.60;;;;;;;6.46;53.74;100859.31;5012917;28;20053;-76
2021/03/08 04:30:17;;;;;;;28.35;17.98;;;;;;;6.47;54.00;100858.22;5013547;28;20058;-76
2021/03/08 04:32:48;;;;;;;28.92;19.08;;;;;;;6.46;54.23;100858.47;5013031;28;20050;-76
2021/03/08 04:35:16;;;;;;;28.67;17.83;;;;;;;6.46;54.22;100866.78;5015488;28;20444;-76
2021/03/08 04:37:43;;;;;;;30.33;19.20;;;;;;;6.48;53.58;100865.41;5025662;28;20061;-76
2021/03/08 04:40:14;;;;;;;32.15;19.10;;;;;;;6.44;53.94;100864.28;5033249;28;20060;-76
2021/03/08 04:42:43;;;;;;;33.78;19.52;;;;;;;6.33;53.92;100868.16;5035407;28;20049;-76
2021/03/08 04:45:11;;;;;;;31.00;19.08;;;;;;;6.23;54.36;100868.16;5036422;28;20057;-76
2021/03/08 04:47:39;;;;;;;29.52;19.52;;;;;;;6.18;55.32;100882.00;5027061;28;20057;-76
2021/03/08 04:50:07;;;;;;;31.77;19.52;;;;;;;6.27;54.43;100874.81;5020386;28;20053;-76
2021/03/08 04:52:37;;;;;;;32.65;19.58;;;;;;;6.25;54.50;100877.84;5036247;28;20056;-76
2021/03/08 04:55:10;;;;;;;30.27;20.07;;;;;;;6.26;55.47;100887.00;5035151;28;20066;-76
2021/03/08 04:57:39;;;;;;;37.45;21.92;;;;;;;6.31;55.07;100878.69;5036187;28;20049;-76
2021/03/08 05:00:09;;;;;;;31.42;20.10;;;;;;;6.37;55.17;100869.28;5035749;28;20060;-76
2021/03/08 05:02:37;;;;;;;;;;;;;;;6.37;54.86;100866.50;5034913;28;20168;-76
2021/03/08 05:05:06;;;;;;;33.70;20.48;;;;;;;6.38;54.89;100870.09;5036062;28;19925;-76
2021/03/08 05:07:37;;;;;;;30.50;20.40;;;;;;;6.42;55.01;100866.50;5017329;28;20052;-76
2021/03/08 05:10:07;;;;;;;31.88;20.10;;;;;;;6.42;54.93;100860.16;5016428;28;20061;-76
2021/03/08 05:12:39;;;;;;;35.20;20.20;;;;;;;6.40;55.16;100860.41;5016531;28;20054;-76
2021/03/08 05:15:09;;;;;;;33.65;20.10;;;;;;;6.45;55.25;100867.91;5016166;28;20085;-76
2021/03/08 05:17:38;;;;;;;32.80;20.35;;;;;;;6.47;54.67;100862.94;5015672;28;20064;-76
2021/03/08 05:20:07;;;;;;;32.55;20.10;;;;;;;6.39;54.81;100866.25;5016524;28;20080;-76
2021/03/08 05:22:35;;;;;;;30.65;19.40;;;;;;;6.36;55.23;100864.84;5015716;28;20057;-76
2021/03/08 05:25:06;;;;;;;31.02;19.23;;;;;;;6.36;55.33;100873.13;5029052;28;20053;-77
2021/03/08 05:27:34;;;;;;;35.08;21.90;;;;;;;6.35;55.38;100871.50;5035107;28;20061;-76
2021/03/08 05:30:05;;;;;;;34.90;21.67;;;;;;;6.35;55.42;100868.72;5035857;28;20545;-76
2021/03/08 05:32:35;;;;;;;;;;;;;;;6.36;54.97;100867.59;5036021;28;20064;-76
2021/03/08 05:35:03;;;;;;;33.75;20.35;;;;;;;6.35;55.30;100873.44;5035843;28;19929;-76
2021/03/08 05:37:30;;;;;;;32.55;22.08;;;;;;;6.37;55.60;100871.22;5035158;28;20056;-76
2021/03/08 05:39:59;;;;;;;33.72;21.20;;;;;;;6.42;54.79;100865.69;5034856;28;20057;-77
2021/03/08 05:42:31;;;;;;;35.00;21.57;;;;;;;6.45;54.91;100865.13;5034381;28;20060;-77
2021/03/08 05:45:02;;;;;;;36.15;20.65;;;;;;;6.47;55.09;100872.06;5035156;28;20484;-76
2021/03/08 05:48:07;;;;;;;35.47;21.15;;;;;;;6.48;55.02;100870.94;5035266;28;20072;-77
2021/03/08 05:51:06;;;;;;;33.75;20.95;;;;;;;6.55;54.79;100875.34;5035618;28;20049;-77
2021/03/08 05:53:58;;;;;;;34.70;22.02;;;;;;;6.55;54.78;100880.88;5029444;28;20050;-76
2021/03/08 05:56:32;;;;;;;36.40;20.63;;;;;;;6.58;54.60;100883.13;5016007;28;20375;-77
2021/03/08 05:59:31;;;;;;;35.42;21.73;;;;;;;6.58;55.21;100881.19;5015785;28;20058;-77
2021/03/08 06:02:30;;;;;;;34.22;21.23;;;;;;;6.58;54.66;100883.13;5015569;28;20050;-76
2021/03/08 06:05:33;;;;;;;33.10;21.10;;;;;;;6.58;55.29;100880.34;5019756;28;20491;-77
2021/03/08 06:08:31;;;;;;;36.53;23.27;;;;;;;6.63;55.44;100888.63;5031857;28;20064;-77
2021/03/08 06:11:06;;;;;;;36.13;22.67;;;;;;;6.63;55.52;100892.22;5027921;28;20060;-77
2021/03/08 06:13:40;;;;;;;34.83;21.92;;;;;;;6.65;55.32;100892.78;5035940;28;20053;-77
2021/03/08 06:16:10;;;;;;;36.08;21.67;;;;;;;6.68;55.65;100905.25;5032227;28;20064;-78
2021/03/08 06:18:47;;;;;;;36.22;21.70;;;;;;;6.69;56.27;100906.91;5023977;28;20046;-76
2021/03/08 06:21:16;;;;;;;40.47;22.63;;;;;;;6.68;56.58;100897.78;5015965;28;20044;-76
2021/03/08 06:23:44;;;;;;;35.50;22.73;;;;;;;6.67;57.36;100907.19;5022476;28;20081;-76
2021/03/08 06:26:13;;;;;;;36.78;22.27;;;;;;;6.63;57.95;100906.06;5026423;28;20049;-76
2021/03/08 06:28:40;;;;;;;37.78;23.33;;;;;;;6.59;59.07;100912.44;5049731;28;20149;-76
2021/03/08 06:31:08;;;;;;;41.10;24.23;;;;;;;6.60;59.05;100912.19;5033405;28;20049;-76
2021/03/08 06:33:36;;;;;;;40.15;25.05;;;;;;;6.56;59.41;100910.25;5033287;28;20049;-76
2021/03/08 06:36:04;;;;;;;39.80;25.23;;;;;;;6.53;60.23;100919.09;5034383;28;20514;-76
2021/03/08 06:38:32;;;;;;;41.03;25.27;;;;;;;6.51;60.18;100916.63;5034317;28;20487;-76
2021/03/08 06:41:03;;;;;;;41.20;24.10;;;;;;;6.50;60.21;100915.75;5034135;28;20411;-76
2021/03/08 06:43:31;;;;;;;40.60;25.00;;;;;;;6.47;60.79;100921.88;5033867;28;20049;-77
2021/03/08 06:45:58;;;;;;;44.10;25.73;;;;;;;6.48;60.75;100929.03;5033650;28;20410;-77
2021/03/08 06:48:25;;;;;;;42.75;24.67;;;;;;;6.46;61.38;100922.94;5033074;28;20049;-76
2021/03/08 06:51:07;;;;;;;44.08;26.58;;;;;;;6.40;61.60;100932.34;5021126;28;20045;-78
2021/03/08 06:53:34;;;;;;;46.05;26.52;;;;;;;6.39;61.66;100933.47;5028879;28;20045;-78
2021/03/08 06:56:14;;;;;;;46.70;26.95;;;;;;;6.39;62.18;100932.66;5028746;28;20502;-78
2021/03/08 06:58:41;;;;;;;45.17;25.55;;;;;;;6.37;62.31;100937.63;5039221;28;20136;-78
2021/03/08 07:01:30;;;;;;;47.25;28.30;;;;;;;6.35;62.76;100942.59;5034215;28;20053;-78
2021/03/08 07:03:58;;;;;;;42.67;26.08;;;;;;;6.35;62.15;100926.81;5031526;28;20057;-78
2021/03/08 07:06:25;;;;;;;46.60;25.92;;;;;;;6.33;62.46;100934.56;5035983;28;20486;-76
2021/03/08 07:09:01;;;;;;;49.30;27.25;;;;;;;6.31;62.55;100942.31;5033173;28;20475;-76
2021/03/08 07:11:29;;;;;;;46.40;27.20;;;;;;;6.34;62.00;100936.25;5030012;28;20057;-76
2021/03/08 07:13:56;;;;;;;45.50;26.45;;;;;;;6.37;62.20;100940.41;5017192;28;20050;-77
2021/03/08 07:16:34;;;;;;;43.80;26.30;;;;;;;6.38;62.45;100942.88;5014385;28;20415;-77
2021/03/08 07:19:02;;;;;;;44.42;26.92;;;;;;;6.37;62.58;100943.16;5016495;28;20053;-76
2021/03/08 07:21:29;;;;;;;46.05;27.10;;;;;;;6.37;62.32;100952.28;5025472;28;20490;-77
2021/03/08 07:24:09;;;;;;;47.47;26.85;;;;;;;6.41;62.38;100947.88;5033987;28;20501;-76
2021/03/08 07:26:38;;;;;;;42.42;26.08;;;;;;;6.43;62.14;100945.66;5033989;28;20124;-75
2021/03/08 07:29:12;;;;;;;45.85;26.92;;;;;;;6.43;62.20;100948.41;5030313;28;20057;-75
2021/03/08 07:31:40;;;;;;;43.63;26.45;;;;;;;6.41;62.45;100952.56;5034085;28;20055;-76
2021/03/08 07:34:09;;;;;;;40.15;24.63;;;;;;;6.41;62.32;100952.56;5033578;28;20065;-75
2021/03/08 07:36:40;;;;;;;44.10;26.20;;;;;;;6.38;62.48;100951.16;5032882;28;20056;-76
2021/03/08 07:39:16;;;;;;;46.72;27.08;;;;;;;6.40;62.72;100957.25;5033260;28;20053;-81
2021/03/08 07:41:57;;;;;;;44.45;25.65;;;;;;;6.33;62.35;100962.25;5032837;28;20483;-77
2021/03/08 07:44:25;;;;;;;46.95;27.33;;;;;;;6.35;62.65;100973.88;5030286;28;20064;-74
2021/03/08 07:46:57;;;;;;;52.40;30.38;;;;;;;6.37;62.42;100968.88;5030428;28;20057;-74
2021/03/08 07:49:34;;;;;;;45.42;26.35;;;;;;;6.39;63.02;100977.75;5028216;28;20399;-74
2021/03/08 07:52:06;;;;;;;42.88;26.95;;;;;;;6.44;62.32;100969.44;5030629;28;20054;-74
2021/03/08 07:54:55;;;;;;;47.35;27.20;;;;;;;6.35;62.94;100973.88;5024828;28;20525;-74
2021/03/08 07:57:24;;;;;;;46.88;27.55;;;;;;;6.42;63.12;100970.81;5030524;28;20053;-74
2021/03/08 07:59:51;;;;;;;43.13;25.53;;;;;;;6.45;62.56;100976.66;5032304;28;20053;-74
2021/03/08 08:02:18;;;;;;;46.72;27.73;;;;;;;6.46;62.37;100977.47;5025226;28;20484;-74
2021/03/08 08:04:45;;;;;;;47.20;28.70;;;;;;;6.44;62.40;100971.38;5028265;28;20053;-74
2021/03/08 08:07:14;;;;;;;45.20;28.15;;;;;;;6.49;62.11;100975.00;5030517;28;20058;-74
2021/03/08 08:09:45;;;;;;;47.03;26.52;;;;;;;6.48;62.23;100978.84;5029494;28;20053;-74
2021/03/08 08:12:15;;;;;;;48.55;28.45;;;;;;;6.51;62.66;100974.72;5029165;28;20052;-74
2021/03/08 08:14:44;;;;;;;54.60;29.75;;;;;;;6.52;62.98;100976.38;5027934;28;20060;-74
2021/03/08 08:17:15;;;;;;;49.67;28.35;;;;;;;6.52;63.06;100975.56;5032908;28;20052;-74
2021/03/08 08:19:45;;;;;;;50.88;29.10;;;;;;;6.51;63.56;100974.72;5029922;28;20053;-74
2021/03/08 08:22:17;;;;;;;48.38;27.92;;;;;;;6.57;63.09;100981.91;5033587;28;20057;-74
2021/03/08 08:24:46;;;;;;;48.40;29.15;;;;;;;6.66;62.43;100979.44;5031509;28;20054;-74
2021/03/08 08:27:13;;;;;;;53.15;31.00;;;;;;;6.69;62.55;100981.66;5029588;28;20400;-73
2021/03/08 08:29:41;;;;;;;48.22;28.13;;;;;;;6.76;62.65;100981.38;5028294;28;20060;-74
2021/03/08 08:32:09;;;;;;;49.97;30.10;;;;;;;6.73;62.68;100982.75;5037345;28;20529;-75
2021/03/08 08:34:38;;;;;;;54.35;31.98;;;;;;;6.76;62.97;100979.47;5031026;28;20045;-75
2021/03/08 08:37:11;;;;;;;52.60;29.27;;;;;;;6.83;63.08;100973.63;5032543;28;20053;-75
2021/03/08 08:39:39;;;;;;;47.13;27.80;;;;;;;6.81;62.90;100973.91;5025909;28;20064;-74
2021/03/08 08:42:18;;;;;;;52.80;30.73;;;;;;;6.85;62.74;100969.47;5033731;28;20056;-74
2021/03/08 08:44:46;;;;;;;54.60;30.33;;;;;;;6.86;62.44;100965.59;5034188;28;20061;-74
2021/03/08 08:47:29;;;;;;;47.83;28.55;;;;;;;6.90;61.85;100971.41;5034667;28;20041;-74
2021/03/08 08:49:59;;;;;;;54.70;31.30;;;;;;;6.81;62.24;100968.38;5031402;28;20072;-74
2021/03/08 08:52:46;;;;;;;53.83;31.35;;;;;;;6.77;63.06;100967.25;5034861;28;20064;-75
2021/03/08 08:55:15;;;;;;;54.58;30.02;;;;;;;6.83;62.88;100970.88;5030046;28;20060;-76
2021/03/08 08:58:15;;;;;;;49.83;28.80;;;;;;;6.93;63.23;100975.56;5031384;28;20196;-75
2021/03/08 09:00:42;;;;;;;51.28;29.48;;;;;;;7.02;62.69;100971.97;5031808;28;20049;-74
2021/03/08 09:03:17;;;;;;;55.47;30.65;;;;;;;7.11;62.30;100966.69;5033937;28;20089;-74
2021/03/08 09:05:45;;;;;;;54.83;29.70;;;;;;;7.17;62.32;100965.56;5033021;28;20065;-74
2021/03/08 09:08:31;;;;;;;60.17;31.98;;;;;;;7.27;62.34;100960.00;5032498;28;20057;-75
2021/03/08 09:11:01;;;;;;;59.13;32.85;;;;;;;7.31;61.92;100972.19;5031827;28;20388;-75
2021/03/08 09:13:28;;;;;;;;;;;;;;;7.34;62.13;100969.97;5031074;28;20061;-74
2021/03/08 09:15:58;;;;;;;60.45;31.50;;;;;;;7.29;61.93;100973.59;5033708;28;19928;-74
2021/03/08 09:18:36;;;;;;;63.80;31.70;;;;;;;7.23;62.64;100970.00;5034161;28;20042;-74
2021/03/08 09:21:23;;;;;;;65.10;32.67;;;;;;;7.32;62.37;100967.47;5029880;28;20046;-74
2021/03/08 09:23:50;;;;;;;64.10;32.78;;;;;;;7.34;61.82;100969.97;5027780;28;20057;-74
2021/03/08 09:26:17;;;;;;;63.80;34.20;;;;;;;7.07;63.10;100971.13;5033128;28;20052;-74
2021/03/08 09:28:49;;;;;;;61.60;32.38;;;;;;;7.22;62.27;100968.31;5030090;28;20057;-74
2021/03/08 09:31:21;;;;;;;57.50;31.23;;;;;;;7.10;62.41;100965.03;5030868;28;20062;-74
2021/03/08 09:33:55;;;;;;;62.55;33.53;;;;;;;7.21;62.39;100971.38;5025313;28;20057;-74
2021/03/08 09:36:24;;;;;;;60.97;33.72;;;;;;;7.25;62.61;100970.53;5038936;28;20045;-75
2021/03/08 09:38:50;;;;;;;63.25;33.25;;;;;;;7.31;62.71;100969.41;5038596;28;20601;-75
2021/03/08 09:41:17;;;;;;;66.68;34.53;;;;;;;7.35;61.53;100963.31;5034341;28;20053;-75
2021/03/08 09:43:44;;;;;;;63.13;31.80;;;;;;;7.37;61.59;100963.84;5031215;28;20049;-74
2021/03/08 09:46:13;;;;;;;74.80;34.03;;;;;;;7.35;61.72;100968.84;5033941;28;20053;-75
2021/03/08 09:48:43;;;;;;;60.78;31.27;;;;;;;7.39;61.64;100969.94;5032841;28;20057;-75
2021/03/08 09:51:13;;;;;;;66.22;34.55;;;;;;;7.27;62.25;100964.72;5034513;28;20072;-75
2021/03/08 09:53:42;;;;;;;64.63;34.75;;;;;;;7.22;62.41;100967.50;5030144;28;20065;-75
2021/03/08 09:56:10;;;;;;;75.40;36.60;;;;;;;7.26;62.99;100974.13;5019696;28;20367;-75
2021/03/08 09:58:41;;;;;;;62.83;32.00;;;;;;;7.32;62.61;100970.25;5027197;28;20053;-75
2021/03/08 10:01:15;;;;;;;66.78;33.53;;;;;;;7.36;62.15;100970.53;5030603;28;20049;-76
2021/03/08 10:03:42;;;;;;;64.70;33.40;;;;;;;7.43;62.53;100971.03;5033334;28;20076;-75
2021/03/08 10:06:21;;;;;;;58.50;31.40;;;;;;;7.50;62.12;100966.06;5033630;28;20045;-75
2021/03/08 10:08:49;;;;;;;58.30;32.20;;;;;;;7.54;62.07;100969.94;5034890;28;20054;-75
2021/03/08 10:11:26;;;;;;;59.55;31.02;;;;;;;7.58;62.07;100967.41;5033215;28;20498;-75
2021/03/08 10:13:54;;;;;;;60.25;31.35;;;;;;;7.60;61.66;100979.91;5030929;28;20060;-76
2021/03/08 10:16:22;;;;;;;60.25;32.05;;;;;;;7.60;62.08;100974.34;5035251;28;20054;-75
2021/03/08 10:18:53;;;;;;;64.45;32.83;;;;;;;7.61;62.10;100981.53;5032234;28;20081;-76
2021/03/08 10:21:21;;;;;;;61.10;32.80;;;;;;;7.65;62.50;100981.81;5034269;28;20456;-75
2021/03/08 10:23:49;;;;;;;63.58;33.60;;;;;;;7.70;61.81;100982.59;5030730;28;20049;-75
2021/03/08 10:26:18;;;;;;;63.92;32.55;;;;;;;7.71;62.13;100986.22;5032691;28;20049;-74
2021/03/08 10:28:47;;;;;;;66.55;34.15;;;;;;;7.64;61.98;100978.22;5031202;28;20395;-73
2021/03/08 10:31:18;;;;;;;62.72;34.22;;;;;;;7.67;61.84;100971.28;5033195;28;20060;-74
2021/03/08 10:33:47;;;;;;;64.53;33.90;;;;;;;7.65;61.83;100977.09;5031938;28;20045;-74
2021/03/08 10:36:18;;;;;;;68.85;34.00;;;;;;;7.67;61.56;100985.97;5033106;28;20054;-73
2021/03/08 10:38:52;;;;;;;66.78;32.80;;;;;;;7.70;62.02;100974.28;5021822;28;20060;-73
2021/03/08 10:41:25;;;;;;;69.43;34.78;;;;;;;7.79;61.01;100979.25;5035591;28;20046;-73
2021/03/08 10:43:58;;;;;;;71.00;34.20;;;;;;;7.65;61.69;100979.03;5036000;28;20057;-74
2021/03/08 10:46:32;;;;;;;64.60;33.75;;;;;;;7.63;61.87;100979.31;5039850;28;20068;-74
2021/03/08 10:49:02;;;;;;;71.30;33.72;;;;;;;7.60;62.18;100979.03;5036636;28;20434;-75
2021/03/08 10:51:33;;;;;;;64.47;34.38;;;;;;;7.56;62.08;100981.56;5020309;28;20383;-74
2021/03/08 10:54:07;;;;;;;71.38;35.72;;;;;;;7.53;62.49;100984.88;5035824;28;20060;-74
2021/03/08 10:56:45;;;;;;;71.28;34.78;;;;;;;7.53;63.13;100984.88;5039622;28;20475;-74
2021/03/08 10:59:31;;;;;;;65.50;33.87;;;;;;;7.68;62.44;100981.22;5038356;28;20060;-74
2021/03/08 11:02:07;;;;;;;64.30;33.97;;;;;;;7.78;62.31;100983.97;5036833;28;20061;-74
2021/03/08 11:04:38;;;;;;;64.20;33.88;;;;;;;7.86;61.75;100983.38;5032071;28;20072;-74
2021/03/08 11:07:10;;;;;;;66.28;34.55;;;;;;;7.99;61.23;100970.03;5038221;28;20379;-74
2021/03/08 11:09:42;;;;;;;60.08;31.77;;;;;;;8.09;60.65;100981.06;5030266;28;20056;-74
2021/03/08 11:12:20;;;;;;;61.90;33.47;;;;;;;8.07;61.25;100986.06;5038630;28;20062;-74
2021/03/08 11:14:50;;;;;;;64.50;33.17;;;;;;;8.11;61.40;100985.22;5032789;28;20069;-78
2021/03/08 11:17:30;;;;;;;59.03;33.88;;;;;;;8.14;61.11;100983.81;5033071;28;20045;-74
2021/03/08 11:20:05;;;;;;;;;;;;;;;8.23;60.84;100984.03;5027714;28;20061;-73
2021/03/08 11:22:49;;;;;;;56.33;30.60;;;;;;;8.29;60.49;100985.66;5030054;28;19921;-74
2021/03/08 11:25:33;;;;;;;54.30;30.67;;;;;;;8.37;60.22;100993.41;5029098;28;20060;-73
2021/03/08 11:28:11;;;;;;;60.15;32.67;;;;;;;8.45;59.81;100990.03;5033480;28;20400;-73
2021/03/08 11:30:40;;;;;;;54.60;30.88;;;;;;;8.57;59.73;100992.47;5035328;28;20045;-74
2021/03/08 11:33:12;;;;;;;56.97;32.03;;;;;;;8.68;59.30;100987.69;5026517;28;20491;-73
2021/03/08 11:35:42;;;;;;;56.47;31.35;;;;;;;8.65;59.06;100991.88;5035255;28;20068;-73
2021/03/08 11:38:10;;;;;;;;;;;;;;;8.81;58.94;100984.22;5026375;28;20100;-73